Aérodrome :
LOGIN :

S'inscrire | Disclaimer

   EN    FR    IT 

 










Légende :    VFR   VFR Marginal   IFR   IFR Intensif   IFR Très Intensif
Visi : 
Plafond : 
>= 8 km
>= 3000ft
5 à 8 km
1000 à 3000 ft
1500m à 5 km
500 à 1000 ft
800 à 1500m
200 à 500 ft
< 800m
< 200 ft
Symboles :   Orages  Brouillard  Fortes neiges  Fortes précipitations  Vent > 20 kt
SIGMETs :   Divers  Orages  Givrage  Turbulence  Onde Orograph.  Cendres Volcan.






- Altitude de l'aérodrome : 288 ft
- Code IATA : BZZ


EGVN - RAF Brize Norton

DERNIER METAR :
  • 280620Z 00000KT 0250 FG VV/// 06/06 Q1018 BECMG 2000 BR SCT003 RMK RED BECMG YLO2

METARs EXPIRÉS :
  • 280550Z 12001KT 0200 FG VV/// 06/06 Q1018 NOSIG RMK RED RED
  • 280520Z 13002KT 0200 FG VV/// 06/06 Q1018 NOSIG RMK RED RED
  • 280450Z 20001KT 0300 FG VV/// 06/06 Q1019 NOSIG RMK RED RED
  • 280420Z 00000KT 0300 FG VV/// 06/06 Q1019 NOSIG RMK RED RED
  • 280350Z 26001KT 0300 FG VV/// 06/06 Q1019 NOSIG RMK RED RED
  • 280320Z 00000KT 0250 FG VV/// 06/06 Q1019 NOSIG RMK RED RED
  • 280250Z 27002KT 0200 FG VV/// 06/06 Q1019 NOSIG RMK RED RED
  • 280220Z 26003KT 0150 FG VV/// 06/06 Q1019 NOSIG RMK RED RED
  • 280150Z 22001KT 0150 FG VV/// 06/06 Q1019 NOSIG RMK RED RED

TAF TAF EGVN
Valide du 28 à 06h jusqu'au 29 à 06h UTC


280443Z 2806/2906 VRB03KT 0200 FG BKN000
BECMG 2807/2810 5000 BR SCT014
BECMG 2810/2812 9999 NSW FEW015
BECMG 2812/2815 BKN012
TEMPO 2814/2823 7000 -RA BKN006
PROB30
TEMPO 2817/2823 3000 RADZ BKN004
PROB30
TEMPO 2823/2902 FEW012
TEMPO 2902/2905 7000 -RA BKN006
PROB30
TEMPO 2902/2905 3000 RADZ
BECMG 2904/2906 FEW010 BKN040



MET'MAP, la Météo Aéronautique d'un coup d'oeil ! - Copyright ORBIFLY Décembre 2007 - Disclaimer

ORBIFLY MET'MAP TEAM :

Programmation & Développement : Alexandra Zaïnal
Sur une idée originale de : Baudouin d'Aumeries
Soutien technique & logistique : Manuel Goepfert
Assistance : Marc-Olivier Méhu




SOURCES & CREDITS :

   NOAA